createdAt,value
2023-01-17T00:02:03.976Z,96.00
2023-01-17T00:05:25.353Z,96.00
2023-01-17T00:08:46.208Z,96.00
2023-01-17T00:11:48.463Z,96.10
2023-01-17T00:14:54.658Z,96.00
2023-01-17T00:17:57.633Z,96.10
2023-01-17T00:21:18.572Z,96.00
2023-01-17T00:24:39.269Z,96.10
2023-01-17T00:27:41.411Z,96.00
2023-01-17T00:30:43.696Z,96.10
2023-01-17T00:33:45.855Z,96.10
2023-01-17T00:36:48.002Z,96.10
2023-01-17T00:39:50.143Z,96.10
2023-01-17T00:42:52.353Z,96.10
2023-01-17T00:46:13.701Z,96.10
2023-01-17T00:49:34.584Z,96.10
2023-01-17T00:52:55.388Z,96.10
2023-01-17T00:56:20.292Z,96.10
2023-01-17T00:59:41.246Z,96.00
2023-01-17T01:03:01.980Z,96.00
2023-01-17T01:06:26.254Z,96.10
2023-01-17T01:09:47.189Z,96.10
2023-01-17T01:13:07.780Z,96.00
2023-01-17T01:16:28.497Z,96.10
2023-01-17T01:19:49.099Z,96.00
2023-01-17T01:23:09.669Z,96.00
2023-01-17T01:26:30.196Z,96.00
2023-01-17T01:29:50.972Z,96.00
2023-01-17T01:33:11.568Z,96.00
2023-01-17T01:36:14.086Z,96.10
2023-01-17T01:39:16.345Z,96.00
2023-01-17T01:42:18.799Z,96.00
2023-01-17T01:45:26.904Z,96.00
2023-01-17T01:48:47.795Z,96.00
2023-01-17T01:51:54.620Z,96.00
2023-01-17T01:55:04.432Z,96.00
2023-01-17T01:58:15.020Z,96.00
2023-01-17T02:01:18.132Z,96.00
2023-01-17T02:04:22.201Z,96.00
2023-01-17T02:07:32.099Z,96.00
2023-01-17T02:10:36.525Z,96.00
2023-01-17T02:13:38.659Z,96.00
2023-01-17T02:16:50.013Z,96.00
2023-01-17T02:19:52.086Z,96.00
2023-01-17T02:23:19.042Z,96.00
2023-01-17T02:26:43.506Z,96.00
2023-01-17T02:30:20.887Z,96.00
2023-01-17T02:33:46.930Z,96.00
2023-01-17T02:37:01.622Z,95.90
2023-01-17T02:40:29.824Z,95.90
2023-01-17T02:43:34.007Z,96.00
2023-01-17T02:46:47.890Z,95.90
2023-01-17T02:49:52.762Z,95.90
2023-01-17T02:53:15.976Z,95.90
2023-01-17T02:56:39.181Z,95.90
2023-01-17T03:00:16.537Z,95.90
2023-01-17T03:03:54.479Z,95.90
2023-01-17T03:07:01.756Z,95.90
2023-01-17T03:10:07.137Z,95.90
2023-01-17T03:13:09.407Z,95.90
2023-01-17T03:16:21.268Z,95.90
2023-01-17T03:19:23.500Z,95.90
2023-01-17T03:22:25.679Z,95.90
2023-01-17T03:25:27.875Z,95.90
2023-01-17T03:28:30.194Z,95.90
2023-01-17T03:31:32.464Z,95.90
2023-01-17T03:34:34.565Z,95.80
2023-01-17T03:37:36.640Z,95.80
2023-01-17T03:40:38.835Z,95.80
2023-01-17T03:43:41.016Z,95.90
2023-01-17T03:46:43.133Z,95.80
2023-01-17T03:49:45.354Z,95.80
2023-01-17T03:52:47.489Z,95.80
2023-01-17T03:55:49.612Z,95.90
2023-01-17T03:58:51.943Z,95.80
2023-01-17T04:01:54.121Z,95.80
2023-01-17T04:04:56.345Z,95.80
2023-01-17T04:07:58.552Z,95.80
2023-01-17T04:11:00.716Z,95.80
2023-01-17T04:14:03.007Z,95.80
2023-01-17T04:17:05.229Z,96.10
2023-01-17T04:20:08.081Z,95.80
2023-01-17T04:23:10.464Z,95.80
2023-01-17T04:26:12.856Z,95.80
2023-01-17T04:29:15.016Z,95.80
2023-01-17T04:32:17.157Z,95.80
2023-01-17T04:35:19.483Z,95.80
2023-01-17T04:38:23.361Z,95.80
2023-01-17T04:41:25.475Z,95.80
2023-01-17T04:44:27.975Z,95.70
2023-01-17T04:47:30.296Z,95.70
2023-01-17T04:50:33.200Z,95.70
2023-01-17T04:53:35.509Z,95.70
2023-01-17T04:56:37.642Z,95.70
2023-01-17T04:59:39.762Z,95.70
2023-01-17T05:02:42.004Z,95.70
2023-01-17T05:05:44.786Z,95.70
2023-01-17T05:08:46.913Z,95.70
2023-01-17T05:11:49.003Z,95.60
2023-01-17T05:14:51.498Z,95.60
2023-01-17T05:17:54.344Z,95.60
2023-01-17T05:21:02.284Z,95.60
2023-01-17T05:24:04.738Z,95.60
2023-01-17T05:27:06.979Z,95.60
2023-01-17T05:30:10.043Z,95.60
2023-01-17T05:33:12.265Z,95.50
2023-01-17T05:36:14.449Z,95.50
2023-01-17T05:39:16.629Z,95.60
2023-01-17T05:42:18.820Z,95.60
2023-01-17T05:45:23.674Z,95.50
2023-01-17T05:48:25.917Z,95.50
2023-01-17T05:51:29.519Z,95.50
2023-01-17T05:54:31.675Z,95.50
2023-01-17T05:57:34.650Z,95.40
2023-01-17T06:00:37.894Z,95.30
2023-01-17T06:03:40.167Z,95.30
2023-01-17T06:06:42.393Z,95.30
2023-01-17T06:09:44.632Z,95.30
2023-01-17T06:12:47.767Z,95.30
2023-01-17T06:15:50.190Z,95.30
2023-01-17T06:18:52.518Z,95.30
2023-01-17T06:21:54.789Z,95.20
2023-01-17T06:24:57.057Z,95.20
2023-01-17T06:27:59.450Z,95.20
2023-01-17T06:31:07.568Z,95.10
2023-01-17T06:34:09.832Z,95.10
2023-01-17T06:37:12.042Z,95.10
2023-01-17T06:40:14.310Z,95.10
2023-01-17T06:43:16.579Z,95.10
2023-01-17T06:46:19.083Z,95.10
2023-01-17T06:49:21.349Z,95.10
2023-01-17T06:52:23.543Z,95.10
2023-01-17T06:55:28.950Z,95.00
2023-01-17T06:58:31.075Z,95.10
2023-01-17T07:01:33.438Z,95.40
2023-01-17T07:04:35.647Z,95.00
2023-01-17T07:07:37.838Z,95.00
2023-01-17T07:10:40.101Z,95.00
2023-01-17T07:13:42.522Z,95.00
2023-01-17T07:16:46.260Z,95.00
2023-01-17T07:19:48.641Z,95.00
2023-01-17T07:22:50.785Z,95.00
2023-01-17T07:25:53.198Z,95.00
2023-01-17T07:28:55.411Z,94.90
2023-01-17T07:31:57.520Z,94.90
2023-01-17T07:34:59.618Z,94.90
2023-01-17T07:38:01.748Z,94.90
2023-01-17T07:41:04.163Z,94.90
2023-01-17T07:44:06.357Z,94.80
2023-01-17T07:47:08.596Z,94.80
2023-01-17T07:50:11.152Z,94.80
2023-01-17T07:53:13.354Z,94.80
2023-01-17T07:56:15.533Z,94.70
2023-01-17T07:59:18.285Z,94.70
2023-01-17T08:02:23.549Z,94.70
2023-01-17T08:05:26.591Z,94.70
2023-01-17T08:08:29.479Z,94.60
2023-01-17T08:11:31.639Z,94.60
2023-01-17T08:14:33.851Z,94.60
2023-01-17T08:17:36.012Z,94.50
2023-01-17T08:20:38.163Z,94.50
2023-01-17T08:23:40.354Z,94.50
2023-01-17T08:26:42.615Z,94.50
2023-01-17T08:29:48.493Z,94.40
2023-01-17T08:32:50.707Z,94.40
2023-01-17T08:35:54.184Z,94.40
2023-01-17T08:38:56.391Z,94.40
2023-01-17T08:41:58.553Z,94.30
2023-01-17T08:45:00.751Z,94.40
2023-01-17T08:48:03.110Z,94.40
2023-01-17T08:51:05.440Z,94.40
2023-01-17T08:54:09.606Z,94.40
2023-01-17T08:57:11.813Z,94.30
2023-01-17T09:00:14.445Z,94.30
2023-01-17T09:03:19.265Z,94.30
2023-01-17T09:06:21.617Z,94.30
2023-01-17T09:09:23.796Z,94.30
2023-01-17T09:12:26.252Z,94.30
2023-01-17T09:15:28.626Z,94.20
2023-01-17T09:18:32.385Z,94.20
2023-01-17T09:21:34.677Z,94.20
2023-01-17T09:24:37.159Z,94.20
2023-01-17T09:27:39.490Z,94.20
2023-01-17T09:30:41.739Z,94.20
2023-01-17T09:33:43.994Z,94.20
2023-01-17T09:36:46.269Z,94.20
2023-01-17T09:39:48.574Z,94.20
2023-01-17T09:43:01.420Z,94.20
2023-01-17T09:46:04.815Z,94.20
2023-01-17T09:49:13.378Z,94.20
2023-01-17T09:52:19.709Z,94.20
2023-01-17T09:55:22.063Z,94.10
2023-01-17T09:59:04.408Z,94.20
2023-01-17T10:02:23.811Z,94.20
2023-01-17T10:05:44.847Z,94.40
2023-01-17T10:09:03.939Z,94.20
2023-01-17T10:12:30.828Z,94.10
2023-01-17T10:15:35.824Z,94.20
2023-01-17T10:18:47.732Z,94.20
2023-01-17T10:22:12.624Z,94.20
2023-01-17T10:25:33.358Z,94.20
2023-01-17T10:28:50.695Z,94.20
2023-01-17T10:32:03.039Z,94.20
2023-01-17T10:35:17.583Z,94.20
2023-01-17T10:38:24.156Z,94.20
2023-01-17T10:41:41.215Z,94.20
2023-01-17T10:45:02.750Z,94.20
2023-01-17T10:48:35.848Z,94.20
2023-01-17T10:52:02.690Z,94.20
2023-01-17T10:55:29.056Z,94.20
2023-01-17T10:58:32.122Z,94.20
2023-01-17T11:01:34.734Z,94.20
2023-01-17T11:04:40.952Z,94.20
2023-01-17T11:08:04.881Z,94.20
2023-01-17T11:11:07.030Z,94.20
2023-01-17T11:14:25.792Z,94.20
2023-01-17T11:17:29.346Z,94.20
2023-01-17T11:20:38.732Z,94.20
2023-01-17T11:24:09.741Z,94.30
2023-01-17T11:27:24.009Z,94.10
2023-01-17T11:30:29.624Z,94.10
2023-01-17T11:33:52.275Z,94.00
2023-01-17T11:37:15.180Z,94.00
2023-01-17T11:47:28.971Z,93.90
2023-01-17T11:50:31.184Z,93.90
2023-01-17T11:53:44.757Z,93.90
2023-01-17T11:56:47.117Z,93.90
2023-01-17T11:59:49.951Z,93.90
2023-01-17T12:03:16.256Z,93.90
2023-01-17T12:06:22.979Z,93.90
2023-01-17T12:09:39.914Z,93.80
2023-01-17T12:13:15.877Z,93.70
2023-01-17T12:16:32.959Z,93.80
2023-01-17T12:19:36.690Z,93.70
2023-01-17T12:23:01.810Z,93.70
2023-01-17T12:26:24.005Z,93.70
2023-01-17T12:29:31.938Z,93.70
2023-01-17T12:32:34.161Z,93.70
2023-01-17T12:35:38.829Z,93.70
2023-01-17T12:38:40.991Z,93.70
2023-01-17T12:42:04.865Z,93.70
2023-01-17T12:45:07.529Z,93.70
2023-01-17T12:48:13.641Z,93.70
2023-01-17T12:51:27.666Z,93.70
2023-01-17T12:55:01.808Z,93.80
2023-01-17T12:58:10.939Z,93.80
2023-01-17T13:01:19.965Z,93.80
2023-01-17T13:04:32.783Z,93.80
2023-01-17T13:08:04.820Z,93.80
2023-01-17T13:11:34.640Z,93.80
2023-01-17T13:14:36.752Z,93.80
2023-01-17T13:18:06.534Z,93.80
2023-01-17T13:21:17.300Z,93.90
2023-01-17T13:24:36.148Z,93.90
2023-01-17T13:28:07.687Z,93.90
2023-01-17T13:31:28.188Z,94.00
2023-01-17T13:35:02.971Z,94.00
2023-01-17T13:38:20.159Z,94.00
2023-01-17T13:41:37.130Z,94.00
2023-01-17T13:44:39.276Z,94.00
2023-01-17T13:47:41.966Z,94.00
2023-01-17T13:50:58.735Z,94.00
2023-01-17T13:54:00.981Z,94.10
2023-01-17T13:57:30.004Z,94.10
2023-01-17T14:00:35.572Z,94.10
2023-01-17T14:04:10.099Z,94.10
2023-01-17T14:07:24.520Z,94.10
2023-01-17T14:10:32.710Z,94.10
2023-01-17T14:13:37.919Z,94.10
2023-01-17T14:16:40.131Z,94.10
2023-01-17T14:19:48.285Z,94.20
2023-01-17T14:22:56.808Z,94.20
2023-01-17T14:26:12.270Z,94.20
2023-01-17T14:29:42.784Z,94.20
2023-01-17T14:33:03.174Z,94.20
2023-01-17T14:36:07.457Z,94.20
2023-01-17T14:39:29.881Z,94.20
2023-01-17T14:42:33.607Z,94.20
2023-01-17T14:45:36.607Z,94.30
2023-01-17T14:48:41.485Z,94.30
2023-01-17T14:51:43.604Z,94.30
2023-01-17T14:54:53.015Z,94.30
2023-01-17T14:57:56.876Z,94.30
2023-01-17T15:01:11.440Z,94.40
2023-01-17T15:04:28.687Z,94.40
2023-01-17T15:07:32.377Z,94.70
2023-01-17T15:10:53.038Z,94.40
2023-01-17T15:13:57.866Z,94.40
2023-01-17T15:17:16.416Z,94.40
2023-01-17T15:20:21.977Z,94.40
2023-01-17T15:23:30.112Z,94.40
2023-01-17T15:26:35.928Z,94.40
2023-01-17T15:29:40.418Z,94.50
2023-01-17T15:32:47.677Z,94.50
2023-01-17T15:35:57.848Z,94.50
2023-01-17T15:39:14.997Z,94.50
2023-01-17T15:42:26.249Z,94.80
2023-01-17T15:45:32.812Z,94.60
2023-01-17T15:48:42.315Z,94.50
2023-01-17T15:51:49.710Z,94.50
2023-01-17T15:54:54.665Z,94.60
2023-01-17T15:57:57.171Z,94.60
2023-01-17T16:00:59.542Z,94.60
2023-01-17T16:04:01.737Z,94.60
2023-01-17T16:07:17.688Z,94.60
2023-01-17T16:10:28.924Z,94.60
2023-01-17T16:13:33.607Z,94.60
2023-01-17T16:16:35.716Z,94.60
2023-01-17T16:19:37.917Z,94.60
2023-01-17T16:22:40.052Z,94.60
2023-01-17T16:25:42.279Z,94.80
2023-01-17T16:28:44.706Z,95.00
2023-01-17T16:31:46.911Z,95.50
2023-01-17T16:34:49.085Z,95.80
2023-01-17T16:37:55.983Z,96.10
2023-01-17T16:40:58.279Z,96.20
2023-01-17T16:44:02.705Z,96.60
2023-01-17T16:47:04.971Z,96.70
2023-01-17T16:50:07.965Z,96.80
2023-01-17T16:53:10.097Z,96.90
2023-01-17T16:56:15.673Z,97.10
2023-01-17T16:59:18.092Z,97.20
2023-01-17T17:02:20.322Z,97.30
2023-01-17T17:05:22.482Z,97.40
2023-01-17T17:08:25.135Z,97.50
2023-01-17T17:11:27.359Z,97.50
2023-01-17T17:14:29.829Z,97.50
2023-01-17T17:17:36.071Z,97.60
2023-01-17T17:20:38.274Z,97.70
2023-01-17T17:23:40.551Z,97.70
2023-01-17T17:26:43.512Z,97.70
2023-01-17T17:29:45.650Z,97.80
2023-01-17T17:32:48.010Z,97.80
2023-01-17T17:35:50.135Z,97.80
2023-01-17T17:38:55.398Z,97.80
2023-01-17T17:41:57.651Z,97.80
2023-01-17T17:44:59.914Z,97.90
2023-01-17T17:48:02.126Z,97.80
2023-01-17T17:51:05.134Z,97.90
2023-01-17T17:54:09.862Z,98.00
2023-01-17T17:57:12.139Z,97.90
2023-01-17T18:00:14.548Z,98.00
2023-01-17T18:03:16.668Z,97.90
2023-01-17T18:06:19.183Z,98.00
2023-01-17T18:09:21.329Z,98.00
2023-01-17T18:12:23.512Z,98.00
2023-01-17T18:15:25.690Z,98.00
2023-01-17T18:18:28.163Z,98.00
2023-01-17T18:21:34.136Z,98.00
2023-01-17T18:24:36.337Z,98.00
2023-01-17T18:27:40.505Z,98.10
2023-01-17T18:30:42.729Z,98.10
2023-01-17T18:33:44.919Z,98.10
2023-01-17T18:36:47.728Z,98.10
2023-01-17T18:39:50.595Z,98.10
2023-01-17T18:42:53.076Z,98.10
2023-01-17T18:45:55.478Z,98.10
2023-01-17T18:48:58.145Z,98.10
2023-01-17T18:52:00.427Z,98.20
2023-01-17T18:55:02.640Z,98.20
2023-01-17T18:58:04.861Z,98.20
2023-01-17T19:01:15.896Z,98.20
2023-01-17T19:04:19.071Z,98.20
2023-01-17T19:07:21.841Z,98.30
2023-01-17T19:10:24.920Z,98.20
2023-01-17T19:13:27.268Z,98.30
2023-01-17T19:16:31.609Z,98.30
2023-01-17T19:19:34.128Z,98.30
2023-01-17T19:26:06.209Z,98.40
2023-01-17T19:29:08.510Z,98.30
2023-01-17T19:32:11.790Z,98.30
2023-01-17T19:35:14.032Z,98.30
2023-01-17T19:38:16.216Z,98.30
2023-01-17T19:41:23.223Z,98.30
2023-01-17T19:44:25.479Z,98.30
2023-01-17T19:47:47.738Z,98.40
2023-01-17T19:51:03.054Z,98.40
2023-01-17T19:54:06.689Z,98.40
2023-01-17T19:57:08.863Z,98.30
2023-01-17T20:00:20.664Z,98.40
2023-01-17T20:03:23.012Z,98.30
2023-01-17T20:06:27.858Z,98.30
2023-01-17T20:09:30.056Z,98.30
2023-01-17T20:12:32.422Z,98.30
2023-01-17T20:15:34.756Z,98.30
2023-01-17T20:18:37.894Z,98.40
2023-01-17T20:21:40.024Z,98.30
2023-01-17T20:24:43.568Z,98.40
2023-01-17T20:27:46.244Z,98.40
2023-01-17T20:30:48.406Z,98.40
2023-01-17T20:33:52.281Z,98.40
2023-01-17T20:36:57.635Z,98.30
2023-01-17T20:39:59.732Z,98.30
2023-01-17T20:43:01.922Z,98.30
2023-01-17T20:46:05.871Z,98.30
2023-01-17T20:49:15.854Z,98.30
2023-01-17T20:52:18.210Z,98.30
2023-01-17T20:55:20.393Z,98.20
2023-01-17T20:58:22.668Z,98.30
2023-01-17T21:01:24.961Z,98.30
2023-01-17T21:04:27.589Z,98.30
2023-01-17T21:07:29.706Z,98.30
2023-01-17T21:10:31.831Z,98.20
2023-01-17T21:13:34.659Z,98.20
2023-01-17T21:16:37.224Z,98.50
2023-01-17T21:19:39.518Z,98.20
2023-01-17T21:22:41.774Z,98.20
2023-01-17T21:25:55.536Z,98.20
2023-01-17T21:29:00.514Z,98.30
2023-01-17T21:32:02.728Z,98.30
2023-01-17T21:35:05.337Z,98.30
2023-01-17T21:38:07.836Z,98.30
2023-01-17T21:41:10.076Z,98.30
2023-01-17T21:44:15.367Z,98.30
2023-01-17T21:47:17.961Z,98.30
2023-01-17T21:50:32.801Z,98.30
2023-01-17T21:53:39.874Z,98.30
2023-01-17T21:57:00.575Z,98.30
2023-01-17T22:00:05.099Z,98.30
2023-01-17T22:03:13.748Z,98.40
2023-01-17T22:06:16.410Z,98.30
2023-01-17T22:09:18.659Z,98.30
2023-01-17T22:12:20.814Z,98.40
2023-01-17T22:15:23.467Z,98.40
2023-01-17T22:18:25.757Z,98.40
2023-01-17T22:21:28.782Z,98.40
2023-01-17T22:24:31.065Z,98.40
2023-01-17T22:27:33.286Z,98.40
2023-01-17T22:30:35.430Z,98.40
2023-01-17T22:33:38.849Z,98.40
2023-01-17T22:36:41.717Z,98.40
2023-01-17T22:39:43.932Z,98.40
2023-01-17T22:42:46.337Z,98.40
2023-01-17T22:45:48.498Z,98.50
2023-01-17T22:48:52.340Z,98.40
2023-01-17T22:51:54.737Z,98.40
2023-01-17T22:54:56.981Z,98.40
2023-01-17T22:57:59.067Z,98.40
2023-01-17T23:01:06.606Z,98.40
2023-01-17T23:04:13.668Z,98.50
2023-01-17T23:07:16.371Z,98.40
2023-01-17T23:10:38.539Z,98.40
2023-01-17T23:13:40.678Z,98.40
2023-01-17T23:17:21.374Z,98.40
2023-01-17T23:20:23.695Z,98.40
2023-01-17T23:23:25.872Z,98.40
2023-01-17T23:26:27.977Z,98.40
2023-01-17T23:29:30.071Z,98.40
2023-01-17T23:32:32.320Z,98.40
2023-01-17T23:35:42.098Z,98.50
2023-01-17T23:38:44.755Z,98.50
2023-01-17T23:42:05.362Z,98.40
2023-01-17T23:45:07.994Z,98.40
2023-01-17T23:48:10.868Z,98.40
2023-01-17T23:51:13.035Z,98.40
2023-01-17T23:54:15.324Z,98.40
2023-01-17T23:57:18.737Z,98.40
